• Join FlightAware (Why Join?)
  • Login
  • US Flag 
07:13PM EDT


 

Airport Tracker/Info


-or-


 

Live Flight TrackerFlight Track Log ✈ SWA3681 ✈ 14-Apr-2013 ✈ KDAL - KELP

Flight Track Log - Related Links

Times and Time Zones

All times are in EDT time to prevent confusion due to time zone crossing. See the SWA3681 flight status page for this flight to view local times or setup timezone preferences in your user account.

Time Position Orientation Groundspeed Altitude Reporting Facility
EDT Latitude Longitude Course Direction KTS MPH feet Rate Location/Type
08:43AM 32.8167 -96.8167 248° West 180 207 2,200  Level Dallas / Fort Worth TRACON
08:44AM 32.7833 -96.7667 128° Southeast 218 251 4,500 2,700 Climbing Dallas / Fort Worth TRACON
08:45AM 32.7167 -96.7500 168° South 228 262 7,700 2,400 Climbing Dallas / Fort Worth TRACON
08:46AM 32.6500 -96.7833 203° Southwest 275 316 9,600 2,220 Climbing Dallas / Fort Worth TRACON
08:49AM 32.7658 -97.5194 248° West  Level FlightAware Approximate
08:49AM 32.6406 -97.0186 267° West 342 394 15,100  Level Fort Worth Center
08:50AM 32.6536 -97.1272 278° West 337 388 17,200 2,400 Climbing Fort Worth Center
08:51AM 32.6661 -97.2406 277° West 344 396 20,000 2,160 Climbing Fort Worth Center
08:52AM 32.6642 -97.3642 269° West 361 415 21,600 2,100 Climbing Fort Worth Center
08:53AM 32.6558 -97.4947 266° West 394 453 24,200 2,100 Climbing Fort Worth Center
08:54AM 32.6475 -97.6231 266° West 394 453 25,800 1,440 Climbing Fort Worth Center
08:55AM 32.6389 -97.7417 265° West 399 459 27,100 1,800 Climbing Fort Worth Center
08:56AM 32.6300 -97.8722 265° West 410 472 29,500 2,100 Climbing Fort Worth Center
08:57AM 32.6211 -98.0006 265° West 398 458 31,400 1,800 Climbing Fort Worth Center
08:58AM 32.6122 -98.1261 265° West 392 451 33,100 1,560 Climbing Fort Worth Center
08:59AM 32.6031 -98.2519 265° West 383 441 34,600 1,380 Climbing Fort Worth Center
09:00AM 32.5917 -98.3850 264° West 383 441 35,900 660 Climbing Fort Worth Center
09:01AM 32.5822 -98.4933 264° West 383 441 36,000  Climbing Fort Worth Center
09:02AM 32.5728 -98.6164 265° West 383 441 36,000  Level Fort Worth Center
09:03AM 32.5633 -98.7394 265° West 383 441 36,000  Level Fort Worth Center
09:04AM 32.5536 -98.8650 265° West 383 441 36,000  Level Fort Worth Center
09:05AM 32.5436 -98.9906 265° West 383 441 36,000  Level Fort Worth Center
09:06AM 32.5317 -99.1161 264° West 388 447 36,000  Level Fort Worth Center
09:07AM 32.5236 -99.2417 266° West 388 447 36,000  Level Fort Worth Center
09:08AM 32.5111 -99.3669 263° West 388 447 36,000  Level Fort Worth Center
09:09AM 32.5008 -99.4925 264° West 388 447 36,000  Level Fort Worth Center
09:10AM 32.4903 -99.6153 264° West 388 447 36,000  Level Fort Worth Center
09:11AM 32.4778 -99.7431 263° West 388 447 36,000  Level Fort Worth Center
09:12AM 32.4647 -99.8806 264° West 388 447 36,000  Level Fort Worth Center
09:13AM 32.4558 -100.0058 265° West 388 447 36,000  Level Fort Worth Center
09:14AM 32.4450 -100.1286 264° West 388 447 36,000  Level Fort Worth Center
09:15AM 32.4358 -100.2489 265° West 388 447 36,000  Level Fort Worth Center
09:16AM 32.4228 -100.3717 263° West 378 435 36,000  Level Fort Worth Center
09:17AM 32.4136 -100.4869 265° West 373 429 36,000  Level Fort Worth Center
09:18AM 32.4022 -100.6097 264° West 373 429 36,000  Level Fort Worth Center
09:19AM 32.3908 -100.7272 263° West 373 429 36,000  Level Fort Worth Center
09:20AM 32.3794 -100.8425 263° West 361 415 36,000  Level Fort Worth Center
09:21AM 32.3697 -100.9603 264° West 361 415 36,000  Level Fort Worth Center
09:22AM 32.3581 -101.0778 263° West 366 421 36,000  Level Fort Worth Center
09:23AM 32.3464 -101.1953 263° West 366 421 36,000  Level Fort Worth Center
09:24AM 32.3342 -101.3153 263° West 366 421 36,000  Level Fort Worth Center
09:25AM 32.3242 -101.4378 265° West 366 421 36,000  Level Fort Worth Center
09:26AM 32.3075 -101.5597 261° West 366 421 36,000  Level Fort Worth Center
09:27AM 32.2972 -101.6797 264° West 366 421 36,000  Level Fort Worth Center
09:28AM 32.2847 -101.8019 263° West 366 421 36,000  Level Fort Worth Center
09:30AM 32.2628 -102.0211 263° West 374 430 36,000  Level Albuquerque Center
09:31AM 32.2497 -102.1453 263° West 378 435 36,000  Level Albuquerque Center
09:32AM 32.2356 -102.2686 262° West 377 434 36,000  Level Albuquerque Center
09:33AM 32.2217 -102.3939 263° West 380 437 36,000  Level Albuquerque Center
09:34AM 32.2089 -102.5194 263° West 381 438 36,000  Level Albuquerque Center
09:35AM 32.1958 -102.6544 264° West 386 444 36,000  Level Fort Worth Center
09:36AM 32.1803 -102.7761 261° West 386 444 36,000  Level Fort Worth Center
09:37AM 32.1683 -102.9031 264° West 386 444 36,000  Level Fort Worth Center
09:38AM 32.1503 -103.0269 260° West 386 444 36,000  Level Fort Worth Center
09:39AM 32.1375 -103.1472 263° West 387 445 36,000  Level Albuquerque Center
09:40AM 32.1233 -103.2700 262° West 381 438 36,000  Level Albuquerque Center
09:41AM 32.1094 -103.3928 262° West 379 436 36,000  Level Albuquerque Center
09:42AM 32.0936 -103.5156 261° West 379 436 36,000  Level Albuquerque Center
09:43AM 32.0797 -103.6392 262° West 380 437 36,000  Level Albuquerque Center
09:44AM 32.0658 -103.7642 263° West 384 442 36,000  Level Albuquerque Center
09:45AM 32.0536 -103.8911 264° West 389 448 36,000  Level Albuquerque Center
09:46AM 32.0336 -104.0408 261° West 388 447 36,000  Level Albuquerque Center
09:47AM 32.0208 -104.1469 262° West 385 443 36,000 -60 Level Albuquerque Center
09:48AM 32.0061 -104.2708 262° West 384 442 35,900  Descending Albuquerque Center
09:49AM 31.9867 -104.4214 261° West 388 447 36,000  Climbing Albuquerque Center
09:50AM 31.9753 -104.5442 264° West 382 440 35,900 -1,140 Descending Albuquerque Center
09:51AM 31.9625 -104.6636 263° West 373 429 33,800 -2,340 Descending Albuquerque Center
09:52AM 31.9478 -104.7819 262° West 370 426 31,200 -2,580 Descending Albuquerque Center
09:53AM 31.9364 -104.9131 264° West 393 452 28,600 -2,460 Descending Albuquerque Center
09:54AM 31.9231 -105.0381 263° West 392 451 26,300 -2,220 Descending Albuquerque Center
09:55AM 31.9106 -105.1558 263° West 374 430 24,100 -2,160 Descending Albuquerque Center
09:56AM 31.8978 -105.2689 262° West 359 413 22,000 -2,160 Descending Albuquerque Center
09:57AM 31.8864 -105.3817 263° West 351 404 19,800 -2,220 Descending Albuquerque Center
09:58AM 31.8744 -105.4911 263° West 341 392 17,600 -2,100 Descending Albuquerque Center
09:59AM 31.8747 -105.5997 270° West 333 383 15,600 -2,160 Descending Albuquerque Center
10:00AM 31.8742 -105.7236 270° West 317 365 13,300 -2,040 Descending Albuquerque Center
10:01AM 31.8728 -105.8194 269° West 298 343 11,500 -1,620 Descending Albuquerque Center
10:02AM 31.8572 -105.9078 258° West 276 318 10,100 -1,440 Descending Albuquerque Center
10:03AM 31.8311 -106.0006 252° West 244 281 8,400 -1,500 Descending Albuquerque Center
10:04AM 31.8144 -106.0617 252° West 246 283 7,100 -900 Descending Albuquerque Center
10:05AM 31.8078 -106.1342 264° West 224 258 6,800 -300 Descending Albuquerque Center
10:06AM 31.8031 -106.2028 265° West 212 244 6,500 -660 Descending Albuquerque Center
10:07AM 31.7981 -106.2558 264° West 166 191 5,500 -780 Descending Albuquerque Center
10:08AM 31.7975 -106.3056 269° West 152 175 5,000 -660 Descending Albuquerque Center
10:09AM 31.8006 -106.3478 275° West 134 154 4,200 -840 Descending Albuquerque Center
10:11AM 31.8000 -106.3667 North  Level FlightAware Approximate
10:18AM 31.8072 -106.3764 North  Level Estimated
10:19AM 31.8072 -106.3764 North  Level Estimated
10:20AM 31.8072 -106.3764 North  Level Estimated
10:21AM 31.8072 -106.3764 North  Level Estimated